x

Buoy F01 - West Penobscot Bay (44033) Wave Buoy

12:04pm - Thu 25th Dec 2014 All times are EST. -5 hours from GMT.

  • Sig Wave height 4.9ft
  • Peak Period 8s
  • Wind
    18mph, 27mph gusts
  • Sea Temp 44°f
  • 空気 Temp 47°f
  • Sea Pressure 995mb
  • Buoy F01 - West Penobscot Bay
  • Buoy F01 - West Penobscot Bay

More Historic Weather Station data

Upgrade to MSW Pro to gain access to the past 30 days of data for over 8000 Wavebouys and Weather Stations around the globe.

Join Pro

Comparision Forecast

View Surf forecast
   
Thu 12/25 12:04pm 5ft 8s 18 27 mph 995mb 44f 47f
11:04am 5ft 6s 20 25 mph 994.8mb 44f 48f
10:04am 6ft 8s 25 34 mph 995.1mb 44f 50f
9:04am 4.5ft 8s 18 27 mph 995.5mb 44f 49f
8:04am 5ft 8s 18 20 mph 996.4mb 44f 49f
7:04am 4.5ft 8s 11 13 mph 995.5mb 43f 48f
6:04am 4.5ft 6s 11 13 mph 996.8mb 43f 47f
5:04am 4.5ft 8s 11 13 mph 997mb 42f 48f
4:04am 4.5ft 6s 11
mph
998mb 43f 47f
3:04am 4.5ft 6s 13 16 mph 998.1mb 43f 50f
2:04am 4.5ft 5s 13 20 mph 998.4mb 43f 50f
1:04am 5ft 5s 20 25 mph 998.6mb 43f 51f
12:04am 4ft 5s 20 22 mph 999.8mb 43f 50f
Wed 12/24 11:04pm 2.5ft 8s 9 11 mph 1001.6mb 43f 48f
10:04pm 2.5ft 6s 4 7 mph 1003.3mb 42f 48f
9:04pm 2.5ft 8s 2 4 mph 1005.2mb 42f 47f
8:04pm 3ft 8s 4
mph
1006.9mb 42f 46f
7:04pm 3ft 8s 9 11 mph 1008.3mb 42f 46f
6:04pm 3ft 8s 9 11 mph 1009.2mb 42f 46f
5:04pm 3ft 8s 7
mph
1010.4mb 42f 44f
4:04pm 3.5ft 8s 7
mph
1011.6mb 42f 44f
3:04pm 3ft 8s 7 9 mph 1012.7mb 42f 44f
2:04pm 3.5ft 8s 7 9 mph 1013mb 42f 44f
1:04pm 3.5ft 6s 9
mph
1014.2mb 41f 43f
12:04pm 3ft 8s 9
mph
1015.7mb 41f 43f
11:04am 3ft 8s 11 16 mph 1016.4mb 42f 43f
10:04am 3ft 8s 11 16 mph 1018.1mb 42f 43f
9:04am 3.5ft 8s 11 16 mph 1019mb 42f 42f
8:04am 3.5ft 6s 11 13 mph 1020mb 42f 42f
7:04am 4ft 8s 11 13 mph 1021mb 42f 40f
6:04am 4ft 8s 11 13 mph 1021.1mb 42f 40f
5:04am 3.5ft 8s 11 13 mph 1020.7mb 42f 40f
4:04am 4ft 8s 16 18 mph 1020.5mb 43f 40f
3:04am 3.5ft 8s 16 18 mph 1021.9mb 43f 40f
2:04am 3.5ft 8s 13 16 mph 1022.2mb 44f 40f
1:04am 4ft 8s 13 16 mph 1022.3mb 43f 40f
12:04am 3.5ft 8s 13 16 mph 1022.2mb 43f 40f
Tue 12/23 11:04pm 3.5ft 8s 13 18 mph 1022.7mb 43f 40f
10:04pm 4ft 8s 13 16 mph 1022.9mb 43f 40f
9:04pm 4ft 8s 13 16 mph 1024mb 43f 40f
7:04pm 4.5ft 6s 16 18 mph 1024mb 43f 41f
6:04pm 4.5ft 8s 13 16 mph 1024.8mb 43f 41f
5:04pm 3.5ft 8s 13 16 mph 1024.6mb 43f 41f
4:04pm 3.5ft 6s 11 13 mph 1024.2mb 44f 41f
9:04am 4ft 6s 16 18 mph 1028mb 43f 37f
8:04am 4.5ft 5s 16 18 mph 1028.3mb 43f 38f
7:04am 4ft 6s 18 22 mph 1027.5mb 43f 39f
6:04am 4ft 5s 18 22 mph 1027.4mb 43f 41f
5:04am 3.5ft 5s 18 20 mph 1027.7mb 43f 41f
4:04am 3ft 5s 18 22 mph 1026.6mb 43f 42f
3:04am 3ft 5s 16 20 mph 1027mb 44f 42f
2:04am 2.5ft 5s 13 18 mph 1027.3mb 44f 42f
1:04am 2.5ft 5s 16 20 mph 1026.4mb 44f 42f
12:04am  -   -  18 22 mph 1026.7mb 44f 42f
Mon 12/22 11:04pm 2.5ft 6s 13 18 mph 1027.5mb 43f 43f
10:04pm 2.5ft 8s 16 18 mph 1027.4mb 43f 42f
9:04pm 2ft 6s 9 11 mph 1027.7mb 42f 40f
8:04pm 2ft 3s 11
mph
1028.5mb 42f 39f
7:04pm 2.5ft 8s 11 13 mph 1028.6mb 42f 38f
6:04pm 2.5ft 8s 13 16 mph 1028.3mb 44f 38f
5:04pm 2ft 4s 13 16 mph 1028.1mb 44f 38f
4:04pm 2ft 5s 11 13 mph 1028.6mb 44f 38f
3:04pm 1.3ft 5s 11 13 mph 1028.5mb 45f 38f
2:04pm 1.3ft 6s 7 9 mph 1027.8mb 44f 37f
1:04pm 1.3ft 8s 11 13 mph 1027.7mb 44f 37f
12:04pm 1.3ft 8s 9 11 mph 1028.1mb 44f 37f
11:04am 1.3ft 6s 9 11 mph 1028.8mb 42f 36f
10:04am 1.6ft 6s 9 11 mph 1029.4mb 42f 35f
9:04am 1.6ft 6s 7 9 mph 1029.5mb 42f 35f
8:04am 1.3ft 6s 7 9 mph 1029.3mb 41f 35f
7:04am 1.6ft 6s 9 11 mph 1029.1mb 41f 35f
6:04am 1.6ft 6s 11 13 mph 1028.5mb 41f 35f
5:04am 1.3ft 5s 11 13 mph 1028mb 41f 35f
4:04am 1.6ft 5s 13 16 mph 1028.2mb 41f 34f
3:04am 1ft 2s 13 16 mph 1028.3mb 43f 33f
2:04am 1.6ft 2s 13 16 mph 1028.2mb 44f 34f
1:04am 2ft 8s 13 16 mph 1027.8mb 44f 34f
12:04am 1.3ft 2s 13 16 mph 1027.7mb 43f 34f
Sun 12/21 11:04pm 1ft 2s 13 16 mph 1027.5mb 43f 35f
10:04pm 1.3ft 6s 11
mph
1027.5mb 42f 35f
9:04pm 1.3ft 6s 11 13 mph 1027.1mb 42f 35f
8:04pm 1.3ft 6s 11 13 mph 1026.9mb 42f 35f
7:04pm 1ft 6s 11 13 mph 1027mb 41f 36f